Accueil
METAR-TAF:

METAR-TAF

Aéroports :

Taubaté, São Paulo, Brésil

latitude: 23-02-26S, longitude: 45-31-00W, altitude: 577 m

Observation

Le bulletin a été fait il y a 43 minutes, à 11:00 UTC
Vent 1 kt de direction variable
Température 23°C
Humidité 83%
Pression 1017 hPa
Visibilité: 8000 m
Nuages épars à une hauteur de 2300 ft

METAR: SBTA 211100Z VRB01KT 8000 SCT023 23/20 Q1017

Heure: 08:43 (11:43 UTC)


TAF: absent

Observations et prévisions météorologiques de plus de 4000 aéroports (messages METAR et TAF).

Les stations disponibles sont représentées par des disques jaunes et rouges sur la carte.

Passer la souris dessus pour voir le nom de la station.

Cliquer dessus pour voir les observations et prévisions météorologiques.

Pour changer de carte: cliquez sur les boutons verts avec une croix noire pour zoomer, sur le bouton vert avec un tiret pour effectuer un zoom arrière, ou sur les flèches vertes pour les cartes adjacentes.


METAR-TAF: